createdAt,value
2022-12-27T00:00:21.848Z,2.83
2022-12-27T00:02:50.234Z,2.70
2022-12-27T00:05:18.584Z,2.80
2022-12-27T00:07:46.843Z,3.77
2022-12-27T00:10:15.089Z,2.90
2022-12-27T00:12:43.324Z,2.80
2022-12-27T00:15:11.639Z,3.07
2022-12-27T00:17:42.256Z,3.27
2022-12-27T00:20:11.878Z,2.53
2022-12-27T00:22:41.062Z,3.30
2022-12-27T00:25:09.925Z,3.43
2022-12-27T00:27:38.737Z,2.73
2022-12-27T00:30:07.845Z,3.63
2022-12-27T00:32:36.206Z,2.60
2022-12-27T00:35:06.222Z,2.90
2022-12-27T00:37:34.495Z,2.50
2022-12-27T00:40:02.752Z,3.43
2022-12-27T00:42:31.022Z,2.90
2022-12-27T00:44:59.278Z,2.70
2022-12-27T00:47:27.513Z,2.90
2022-12-27T00:49:55.807Z,2.83
2022-12-27T00:52:25.360Z,2.80
2022-12-27T00:54:53.575Z,3.40
2022-12-27T00:57:21.858Z,2.60
2022-12-27T00:59:50.070Z,2.63
2022-12-27T01:02:18.314Z,2.80
2022-12-27T01:04:46.551Z,3.03
2022-12-27T01:07:14.804Z,2.87
2022-12-27T01:09:44.388Z,2.43
2022-12-27T01:12:12.640Z,3.37
2022-12-27T01:14:40.833Z,3.40
2022-12-27T01:17:09.076Z,3.30
2022-12-27T01:19:37.324Z,3.00
2022-12-27T01:22:05.640Z,3.23
2022-12-27T01:24:33.952Z,3.00
2022-12-27T01:27:03.587Z,3.40
2022-12-27T01:29:31.847Z,2.90
2022-12-27T01:32:00.155Z,3.00
2022-12-27T01:34:28.439Z,2.97
2022-12-27T01:36:56.661Z,3.13
2022-12-27T01:39:25.176Z,3.37
2022-12-27T01:42:13.187Z,3.40
2022-12-27T01:44:50.244Z,3.40
2022-12-27T01:47:21.149Z,3.30
2022-12-27T01:49:52.955Z,3.50
2022-12-27T01:52:21.794Z,3.07
2022-12-27T01:54:50.099Z,3.83
2022-12-27T01:57:18.289Z,4.10
2022-12-27T01:59:48.308Z,3.47
2022-12-27T02:02:16.929Z,3.80
2022-12-27T02:04:45.517Z,3.63
2022-12-27T02:07:13.761Z,3.40
2022-12-27T02:09:44.083Z,3.60
2022-12-27T02:12:12.497Z,3.53
2022-12-27T02:14:41.626Z,3.37
2022-12-27T02:17:12.391Z,3.90
2022-12-27T02:19:44.113Z,3.57
2022-12-27T02:22:31.242Z,3.53
2022-12-27T02:25:05.675Z,4.00
2022-12-27T02:27:42.277Z,3.83
2022-12-27T02:30:13.327Z,3.73
2022-12-27T02:32:45.772Z,3.67
2022-12-27T02:35:16.468Z,3.80
2022-12-27T02:37:46.983Z,3.47
2022-12-27T02:40:34.592Z,4.00
2022-12-27T02:43:20.905Z,3.90
2022-12-27T02:46:18.438Z,4.00
2022-12-27T02:49:10.766Z,4.30
2022-12-27T02:51:59.335Z,3.87
2022-12-27T02:54:37.050Z,4.33
2022-12-27T02:57:08.910Z,3.80
2022-12-27T03:00:04.424Z,3.83
2022-12-27T03:02:54.065Z,3.73
2022-12-27T03:05:26.035Z,4.13
2022-12-27T03:08:00.340Z,3.93
2022-12-27T03:10:49.536Z,4.10
2022-12-27T03:13:38.225Z,3.90
2022-12-27T03:16:12.203Z,4.23
2022-12-27T03:18:48.404Z,4.33
2022-12-27T03:21:38.275Z,4.20
2022-12-27T03:24:24.699Z,3.90
2022-12-27T03:26:53.685Z,4.30
2022-12-27T03:29:41.320Z,4.60
2022-12-27T03:32:29.090Z,4.37
2022-12-27T03:35:01.376Z,3.80
2022-12-27T03:37:49.627Z,4.40
2022-12-27T03:40:20.886Z,4.03
2022-12-27T03:43:09.254Z,4.20
2022-12-27T03:45:58.778Z,4.40
2022-12-27T03:48:31.803Z,5.03
2022-12-27T03:51:04.990Z,4.27
2022-12-27T03:53:36.085Z,4.67
2022-12-27T03:56:04.649Z,4.33
2022-12-27T03:58:33.102Z,4.00
2022-12-27T04:01:01.373Z,4.20
2022-12-27T04:03:30.805Z,3.87
2022-12-27T04:05:59.075Z,4.33
2022-12-27T04:08:46.434Z,4.03
2022-12-27T04:11:32.469Z,4.13
2022-12-27T04:14:18.360Z,4.30
2022-12-27T04:17:04.515Z,4.10
2022-12-27T04:19:50.621Z,4.00
2022-12-27T04:22:36.825Z,4.20
2022-12-27T04:25:24.392Z,3.77
2022-12-27T04:28:10.405Z,3.63
2022-12-27T04:30:56.397Z,3.97
2022-12-27T04:33:42.518Z,3.33
2022-12-27T04:36:11.001Z,3.13
2022-12-27T04:38:39.217Z,4.23
2022-12-27T04:41:26.780Z,3.43
2022-12-27T04:44:12.848Z,4.60
2022-12-27T04:46:59.303Z,4.20
2022-12-27T04:49:45.940Z,4.80
2022-12-27T04:52:35.331Z,4.60
2022-12-27T04:55:08.108Z,4.70
2022-12-27T04:57:37.687Z,4.20
2022-12-27T05:00:24.181Z,4.80
2022-12-27T05:02:52.602Z,3.97
2022-12-27T05:05:21.128Z,3.93
2022-12-27T05:08:07.285Z,3.80
2022-12-27T05:10:53.260Z,3.87
2022-12-27T05:13:40.377Z,4.47
2022-12-27T05:16:08.979Z,5.37
2022-12-27T05:18:37.188Z,5.13
2022-12-27T05:21:06.100Z,6.90
2022-12-27T05:23:52.942Z,6.43
2022-12-27T05:26:21.950Z,6.73
2022-12-27T05:28:52.473Z,7.50
2022-12-27T05:31:20.960Z,7.47
2022-12-27T05:33:49.514Z,6.67
2022-12-27T05:36:18.085Z,6.53
2022-12-27T05:38:46.406Z,6.03
2022-12-27T05:41:14.728Z,6.20
2022-12-27T05:43:43.163Z,5.97
2022-12-27T05:46:14.038Z,6.23
2022-12-27T05:48:42.491Z,5.73
2022-12-27T05:51:11.919Z,5.80
2022-12-27T05:53:40.338Z,5.90
2022-12-27T05:56:09.402Z,5.80
2022-12-27T05:58:37.647Z,6.33
2022-12-27T06:01:09.113Z,5.20
2022-12-27T06:03:39.361Z,6.23
2022-12-27T06:06:08.222Z,5.53
2022-12-27T06:08:36.761Z,6.03
2022-12-27T06:11:06.320Z,5.67
2022-12-27T06:13:36.399Z,5.63
2022-12-27T06:16:05.366Z,6.00
2022-12-27T06:18:34.712Z,6.10
2022-12-27T06:21:05.382Z,5.13
2022-12-27T06:23:34.774Z,5.00
2022-12-27T06:26:05.856Z,5.30
2022-12-27T06:28:34.189Z,5.30
2022-12-27T06:31:02.831Z,5.37
2022-12-27T06:33:31.235Z,5.50
2022-12-27T06:36:00.569Z,5.60
2022-12-27T06:38:30.210Z,5.43
2022-12-27T06:41:02.319Z,5.57
2022-12-27T06:43:30.699Z,5.33
2022-12-27T06:45:59.323Z,5.10
2022-12-27T06:48:27.794Z,5.80
2022-12-27T06:50:56.112Z,5.50
2022-12-27T06:53:24.486Z,5.67
2022-12-27T06:55:54.096Z,7.00
2022-12-27T06:58:22.358Z,5.67
2022-12-27T07:00:51.281Z,6.03
2022-12-27T07:03:19.573Z,5.63
2022-12-27T07:05:48.541Z,5.43
2022-12-27T07:08:16.885Z,5.70
2022-12-27T07:10:45.148Z,6.43
2022-12-27T07:13:14.913Z,6.30
2022-12-27T07:15:43.154Z,6.10
2022-12-27T07:20:41.132Z,5.90
2022-12-27T07:23:11.080Z,6.60
2022-12-27T07:25:42.639Z,5.83
2022-12-27T07:28:10.953Z,5.77
2022-12-27T07:30:42.782Z,6.13
2022-12-27T07:33:11.157Z,6.47
2022-12-27T07:35:44.822Z,6.50
2022-12-27T07:38:13.490Z,6.27
2022-12-27T07:40:41.800Z,6.30
2022-12-27T07:43:10.056Z,6.40
2022-12-27T07:45:38.490Z,6.60
2022-12-27T07:48:08.427Z,6.63
2022-12-27T07:50:36.634Z,6.30
2022-12-27T07:53:04.880Z,6.10
2022-12-27T07:55:33.371Z,6.20
2022-12-27T07:58:01.586Z,6.03
2022-12-27T08:00:30.123Z,5.80
2022-12-27T08:02:58.397Z,5.77
2022-12-27T08:05:28.215Z,6.07
2022-12-27T08:07:57.369Z,5.27
2022-12-27T08:10:25.615Z,5.40
2022-12-27T08:12:53.861Z,5.47
2022-12-27T08:15:22.572Z,5.77
2022-12-27T08:17:51.457Z,6.10
2022-12-27T08:20:20.331Z,6.23
2022-12-27T08:22:49.936Z,5.73
2022-12-27T08:25:18.229Z,6.90
2022-12-27T08:27:46.438Z,5.70
2022-12-27T08:30:15.200Z,6.77
2022-12-27T08:32:43.503Z,5.63
2022-12-27T08:35:42.365Z,5.20
2022-12-27T08:38:03.779Z,4.60
2022-12-27T08:40:31.967Z,4.47
2022-12-27T08:43:00.779Z,4.30
2022-12-27T08:45:29.076Z,3.70
2022-12-27T08:48:00.481Z,3.70
2022-12-27T08:50:28.859Z,4.00
2022-12-27T08:52:58.515Z,3.60
2022-12-27T08:55:28.391Z,3.53
2022-12-27T08:57:58.946Z,3.30
2022-12-27T09:00:27.621Z,3.30
2022-12-27T09:02:56.153Z,3.20
2022-12-27T09:05:24.771Z,3.30
2022-12-27T09:07:53.288Z,3.40
2022-12-27T09:10:22.651Z,3.10
2022-12-27T09:12:52.949Z,3.30
2022-12-27T09:15:21.226Z,3.20
2022-12-27T09:17:49.661Z,3.10
2022-12-27T09:20:18.050Z,3.10
2022-12-27T09:22:46.568Z,3.27
2022-12-27T09:25:14.864Z,2.87
2022-12-27T09:27:43.112Z,3.40
2022-12-27T09:30:13.298Z,2.87
2022-12-27T09:32:41.661Z,3.37
2022-12-27T09:35:10.324Z,2.90
2022-12-27T09:37:38.671Z,3.47
2022-12-27T09:40:07.591Z,3.20
2022-12-27T09:43:00.769Z,3.27
2022-12-27T09:45:35.677Z,3.33
2022-12-27T09:48:07.358Z,3.77
2022-12-27T09:50:37.597Z,4.07
2022-12-27T09:53:09.940Z,4.23
2022-12-27T09:55:43.506Z,4.10
2022-12-27T09:58:20.306Z,4.30
2022-12-27T10:00:51.257Z,4.80
2022-12-27T10:03:20.869Z,4.80
2022-12-27T10:05:56.195Z,5.70
2022-12-27T10:08:31.699Z,5.40
2022-12-27T10:11:02.592Z,5.40
2022-12-27T10:13:42.830Z,5.07
2022-12-27T10:16:19.828Z,5.10
2022-12-27T10:18:54.394Z,5.93
2022-12-27T10:21:24.126Z,5.10
2022-12-27T10:23:56.208Z,5.73
2022-12-27T10:26:25.723Z,4.70
2022-12-27T10:28:57.969Z,5.03
2022-12-27T10:31:28.061Z,5.80
2022-12-27T10:33:56.379Z,5.10
2022-12-27T10:36:25.503Z,4.50
2022-12-27T10:38:54.550Z,5.73
2022-12-27T10:41:28.279Z,4.73
2022-12-27T10:43:57.258Z,5.00
2022-12-27T10:46:32.388Z,4.60
2022-12-27T10:51:52.620Z,4.77
2022-12-27T10:54:25.375Z,4.47
2022-12-27T10:56:54.093Z,4.80
2022-12-27T10:59:23.817Z,4.63
2022-12-27T11:02:09.012Z,4.80
2022-12-27T11:04:38.933Z,4.50
2022-12-27T11:07:14.272Z,4.80
2022-12-27T11:09:50.175Z,4.90
2022-12-27T11:12:20.334Z,4.67
2022-12-27T11:14:58.723Z,5.10
2022-12-27T11:17:28.541Z,5.47
2022-12-27T11:19:58.835Z,5.03
2022-12-27T11:22:27.664Z,5.67
2022-12-27T11:24:57.565Z,4.93
2022-12-27T11:27:27.371Z,5.40
2022-12-27T11:29:57.763Z,4.77
2022-12-27T11:32:26.408Z,5.03
2022-12-27T11:34:55.664Z,4.60
2022-12-27T11:37:28.276Z,4.67
2022-12-27T11:39:57.366Z,4.20
2022-12-27T11:42:32.502Z,3.93
2022-12-27T11:45:05.608Z,4.27
2022-12-27T11:47:37.688Z,5.07
2022-12-27T11:50:16.369Z,4.30
2022-12-27T11:52:55.761Z,4.47
2022-12-27T11:55:41.753Z,4.20
2022-12-27T11:58:20.337Z,4.57
2022-12-27T12:00:52.879Z,4.83
2022-12-27T12:03:37.318Z,4.30
2022-12-27T12:06:10.504Z,4.57
2022-12-27T12:08:46.753Z,4.33
2022-12-27T12:11:23.220Z,4.60
2022-12-27T12:14:05.072Z,4.40
2022-12-27T12:16:57.218Z,4.47
2022-12-27T12:19:36.430Z,4.50
2022-12-27T12:22:09.423Z,4.93
2022-12-27T12:24:44.304Z,4.07
2022-12-27T12:27:26.284Z,4.33
2022-12-27T12:30:15.800Z,4.60
2022-12-27T12:32:56.259Z,4.73
2022-12-27T12:35:33.709Z,4.33
2022-12-27T12:38:06.587Z,3.87
2022-12-27T12:40:45.426Z,3.93
2022-12-27T12:43:19.600Z,4.30
2022-12-27T12:46:00.471Z,3.93
2022-12-27T12:48:49.438Z,3.83
2022-12-27T12:51:31.031Z,4.13
2022-12-27T12:54:07.071Z,4.40
2022-12-27T12:57:01.362Z,3.83
2022-12-27T12:59:41.715Z,4.10
2022-12-27T13:02:24.127Z,3.63
2022-12-27T13:05:02.246Z,3.90
2022-12-27T13:07:40.875Z,3.97
2022-12-27T13:10:22.234Z,3.67
2022-12-27T13:12:55.776Z,4.43
2022-12-27T13:15:34.533Z,3.90
2022-12-27T13:18:06.207Z,3.57
2022-12-27T13:20:46.743Z,4.47
2022-12-27T13:23:20.079Z,4.03
2022-12-27T13:25:51.028Z,3.27
2022-12-27T13:28:27.687Z,3.50
2022-12-27T13:30:59.593Z,3.53
2022-12-27T13:33:31.638Z,4.17
2022-12-27T13:36:11.890Z,3.63
2022-12-27T13:38:45.196Z,3.20
2022-12-27T13:41:29.914Z,3.83
2022-12-27T13:44:17.365Z,3.40
2022-12-27T13:47:04.552Z,3.43
2022-12-27T13:49:43.354Z,3.50
2022-12-27T13:52:18.365Z,4.03
2022-12-27T13:55:17.715Z,4.23
2022-12-27T13:58:04.415Z,4.10
2022-12-27T14:00:37.256Z,4.47
2022-12-27T14:03:20.696Z,2.93
2022-12-27T14:06:06.909Z,2.80
2022-12-27T14:08:42.337Z,3.00
2022-12-27T14:11:17.626Z,3.03
2022-12-27T14:13:46.897Z,3.20
2022-12-27T14:16:23.357Z,3.10
2022-12-27T14:19:02.939Z,3.00
2022-12-27T14:21:43.693Z,3.27
2022-12-27T14:24:16.642Z,3.47
2022-12-27T14:26:59.737Z,3.77
2022-12-27T14:29:34.663Z,3.50
2022-12-27T14:32:26.770Z,2.93
2022-12-27T14:35:16.076Z,3.63
2022-12-27T14:38:06.701Z,3.07
2022-12-27T14:41:03.580Z,2.77
2022-12-27T14:43:40.032Z,2.80
2022-12-27T14:46:26.308Z,2.90
2022-12-27T14:49:13.328Z,3.03
2022-12-27T14:52:08.752Z,2.60
2022-12-27T14:55:01.054Z,2.87
2022-12-27T14:57:35.596Z,3.10
2022-12-27T15:00:13.903Z,3.60
2022-12-27T15:02:49.829Z,2.80
2022-12-27T15:05:27.303Z,3.00
2022-12-27T15:08:09.277Z,3.57
2022-12-27T15:10:47.486Z,3.13
2022-12-27T15:13:19.040Z,3.03
2022-12-27T15:15:53.371Z,3.40
2022-12-27T15:18:27.615Z,3.07
2022-12-27T15:21:02.229Z,3.13
2022-12-27T15:23:32.905Z,3.40
2022-12-27T15:26:09.083Z,3.07
2022-12-27T15:28:50.016Z,3.10
2022-12-27T15:31:26.232Z,3.53
2022-12-27T15:33:58.620Z,3.67
2022-12-27T15:36:38.671Z,3.33
2022-12-27T15:39:08.264Z,3.30
2022-12-27T15:41:49.500Z,2.97
2022-12-27T15:44:37.569Z,3.40
2022-12-27T15:47:20.706Z,3.27
2022-12-27T15:49:56.805Z,4.00
2022-12-27T15:52:31.323Z,3.23
2022-12-27T15:55:12.422Z,3.90
2022-12-27T15:57:50.218Z,4.03
2022-12-27T16:00:29.957Z,4.07
2022-12-27T16:03:01.974Z,4.20
2022-12-27T16:05:45.192Z,3.93
2022-12-27T16:08:25.008Z,3.60
2022-12-27T16:10:53.980Z,4.07
2022-12-27T16:13:41.826Z,3.80
2022-12-27T16:16:13.707Z,4.23
2022-12-27T16:18:51.436Z,4.23
2022-12-27T16:21:21.584Z,5.13
2022-12-27T16:23:54.701Z,4.57
2022-12-27T16:26:24.175Z,5.03
2022-12-27T16:28:57.276Z,4.83
2022-12-27T16:31:28.335Z,4.77
2022-12-27T16:33:58.088Z,4.80
2022-12-27T16:36:28.799Z,4.67
2022-12-27T16:39:14.685Z,5.40
2022-12-27T16:41:58.954Z,4.10
2022-12-27T16:44:37.972Z,4.20
2022-12-27T16:47:11.658Z,3.60
2022-12-27T16:50:01.777Z,4.10
2022-12-27T16:52:42.471Z,4.20
2022-12-27T16:55:21.714Z,4.40
2022-12-27T16:57:50.460Z,4.23
2022-12-27T17:00:33.644Z,4.80
2022-12-27T17:03:20.696Z,4.77
2022-12-27T17:06:31.317Z,4.30
2022-12-27T17:08:39.445Z,4.20
2022-12-27T17:11:25.802Z,4.07
2022-12-27T17:13:56.974Z,4.13
2022-12-27T17:16:26.251Z,4.20
2022-12-27T17:18:57.828Z,4.10
2022-12-27T17:21:30.525Z,4.10
2022-12-27T17:23:59.912Z,4.43
2022-12-27T17:26:46.035Z,4.27
2022-12-27T17:29:29.514Z,4.80
2022-12-27T17:32:02.873Z,4.20
2022-12-27T17:34:34.049Z,4.20
2022-12-27T17:37:09.007Z,4.57
2022-12-27T17:39:48.833Z,4.20
2022-12-27T17:42:37.797Z,4.03
2022-12-27T17:45:14.519Z,3.80
2022-12-27T17:47:57.827Z,3.73
2022-12-27T17:50:27.875Z,4.00
2022-12-27T17:53:37.253Z,4.30
2022-12-27T17:56:40.741Z,4.33
2022-12-27T17:59:11.113Z,4.00
2022-12-27T18:01:42.298Z,4.30
2022-12-27T18:04:17.892Z,4.00
2022-12-27T18:06:46.155Z,3.57
2022-12-27T18:09:18.894Z,3.63
2022-12-27T18:11:47.179Z,4.53
2022-12-27T18:14:16.904Z,3.73
2022-12-27T18:16:45.344Z,4.00
2022-12-27T18:19:18.834Z,3.80
2022-12-27T18:21:56.247Z,2.90
2022-12-27T18:24:29.949Z,3.50
2022-12-27T18:27:01.926Z,3.47
2022-12-27T18:29:30.300Z,3.87
2022-12-27T18:31:59.481Z,3.73
2022-12-27T18:34:29.491Z,3.17
2022-12-27T18:37:00.568Z,2.80
2022-12-27T18:39:32.518Z,3.43
2022-12-27T18:42:02.148Z,3.57
2022-12-27T18:44:33.747Z,2.77
2022-12-27T18:47:03.667Z,3.33
2022-12-27T18:49:33.463Z,3.20
2022-12-27T18:52:01.945Z,3.13
2022-12-27T18:54:34.913Z,2.90
2022-12-27T18:57:04.592Z,2.73
2022-12-27T18:59:33.096Z,3.10
2022-12-27T19:02:02.809Z,3.80
2022-12-27T19:04:31.869Z,2.90
2022-12-27T19:07:07.828Z,3.10
2022-12-27T19:09:39.207Z,3.30
2022-12-27T19:12:08.307Z,2.80
2022-12-27T19:14:38.880Z,3.00
2022-12-27T19:17:10.898Z,3.47
2022-12-27T19:19:39.816Z,2.77
2022-12-27T19:22:22.898Z,2.90
2022-12-27T19:24:58.989Z,3.13
2022-12-27T19:27:27.219Z,2.90
2022-12-27T19:29:55.427Z,3.13
2022-12-27T19:32:25.795Z,2.73
2022-12-27T19:34:55.610Z,2.80
2022-12-27T19:37:26.735Z,2.87
2022-12-27T19:39:56.623Z,2.90
2022-12-27T19:42:27.653Z,2.83
2022-12-27T19:44:55.970Z,3.33
2022-12-27T19:47:24.607Z,2.97
2022-12-27T19:49:52.843Z,3.23
2022-12-27T19:52:22.432Z,2.53
2022-12-27T19:54:51.540Z,2.97
2022-12-27T19:57:22.362Z,7.40
2022-12-27T19:59:50.668Z,2.60
2022-12-27T20:02:20.700Z,3.43
2022-12-27T20:04:49.148Z,3.10
2022-12-27T20:07:21.238Z,2.67
2022-12-27T20:09:49.532Z,3.13
2022-12-27T20:12:17.807Z,2.90
2022-12-27T20:14:48.127Z,2.90
2022-12-27T20:17:16.395Z,2.70
2022-12-27T20:19:44.913Z,3.13
2022-12-27T20:22:13.195Z,2.80
2022-12-27T20:24:41.420Z,2.83
2022-12-27T20:27:09.717Z,2.87
2022-12-27T20:29:38.004Z,3.00
2022-12-27T20:32:07.815Z,3.13
2022-12-27T20:34:36.166Z,3.20
2022-12-27T20:37:05.069Z,3.20
2022-12-27T20:39:33.570Z,2.93
2022-12-27T20:42:02.261Z,2.83
2022-12-27T20:44:30.512Z,2.90
2022-12-27T20:46:58.741Z,3.33
2022-12-27T20:49:28.340Z,2.50
2022-12-27T20:51:56.638Z,2.60
2022-12-27T20:54:24.866Z,3.13
2022-12-27T20:56:53.142Z,2.83
2022-12-27T20:59:21.351Z,2.83
2022-12-27T21:01:56.568Z,2.60
2022-12-27T21:04:26.674Z,3.00
2022-12-27T21:06:56.339Z,2.67
2022-12-27T21:09:24.691Z,2.63
2022-12-27T21:11:53.671Z,3.17
2022-12-27T21:14:21.969Z,3.10
2022-12-27T21:16:50.431Z,2.47
2022-12-27T21:19:18.940Z,2.50
2022-12-27T21:21:47.187Z,2.40
2022-12-27T21:24:16.804Z,3.03
2022-12-27T21:26:45.049Z,2.50
2022-12-27T21:29:14.423Z,2.53
2022-12-27T21:31:42.666Z,2.70
2022-12-27T21:34:10.944Z,3.10
2022-12-27T21:36:39.609Z,3.33
2022-12-27T21:39:08.659Z,2.40
2022-12-27T21:41:38.778Z,2.40
2022-12-27T21:44:07.519Z,2.43
2022-12-27T21:46:36.627Z,2.57
2022-12-27T21:49:06.317Z,2.50
2022-12-27T21:51:35.827Z,2.47
2022-12-27T21:54:04.403Z,2.70
2022-12-27T21:56:32.878Z,2.80
2022-12-27T21:59:05.429Z,2.47
2022-12-27T22:01:50.035Z,2.40
2022-12-27T22:04:20.477Z,2.30
2022-12-27T22:06:48.725Z,2.63
2022-12-27T22:09:18.904Z,2.10
2022-12-27T22:11:47.329Z,2.30
2022-12-27T22:14:16.985Z,2.00
2022-12-27T22:16:46.309Z,2.20
2022-12-27T22:19:14.943Z,2.77
2022-12-27T22:21:43.470Z,2.80
2022-12-27T22:24:15.363Z,2.23
2022-12-27T22:26:43.611Z,2.27
2022-12-27T22:29:12.989Z,2.40
2022-12-27T22:31:42.867Z,2.33
2022-12-27T22:34:11.123Z,2.33
2022-12-27T22:36:39.393Z,2.70
2022-12-27T22:39:07.689Z,2.10
2022-12-27T22:41:38.127Z,2.43
2022-12-27T22:44:07.583Z,2.33
2022-12-27T22:47:24.477Z,2.60
2022-12-27T22:49:25.814Z,2.37
2022-12-27T22:51:54.074Z,2.20
2022-12-27T22:55:04.511Z,2.47
2022-12-27T22:57:10.515Z,2.50
2022-12-27T22:59:38.803Z,2.63
2022-12-27T23:02:07.142Z,2.20
2022-12-27T23:04:36.900Z,2.47
2022-12-27T23:07:05.917Z,2.53
2022-12-27T23:09:40.866Z,2.60
2022-12-27T23:12:11.288Z,2.20
2022-12-27T23:14:39.671Z,2.20
2022-12-27T23:17:07.890Z,2.33
2022-12-27T23:19:37.543Z,2.30
2022-12-27T23:22:05.813Z,2.20
2022-12-27T23:24:34.051Z,2.13
2022-12-27T23:27:03.249Z,2.23
2022-12-27T23:29:31.674Z,1.90
2022-12-27T23:32:00.049Z,2.13
2022-12-27T23:34:29.342Z,2.30
2022-12-27T23:36:59.155Z,2.37
2022-12-27T23:39:27.624Z,2.00
2022-12-27T23:41:56.019Z,2.10
2022-12-27T23:44:33.262Z,2.83
2022-12-27T23:47:02.865Z,2.20
2022-12-27T23:49:31.114Z,2.20
2022-12-27T23:52:00.823Z,2.17
2022-12-27T23:54:29.118Z,2.20
2022-12-27T23:56:57.360Z,2.40
2022-12-27T23:59:25.645Z,2.30
